Time;durP1;ratioP1;P1;durP2;ratioP2;P2;SDS_P1;SDS_P2;PMS_P1;PMS_P2;Temp;Humidity;BMP_temperature;BMP_pressure;BME280_temperature;BME280_humidity;BME280_pressure;Samples;Min_cycle;Max_cycle;Signal;HPM_P1;HPM_P2
2024/02/12 00:01:40;;;;;;;;;;;;;;;18.31;64.00;99652.19;7392816;19;1523;-35
2024/02/12 00:04:09;;;;;;;;;;;;;;;18.27;64.05;99663.19;7394402;19;1271;-35
2024/02/12 00:06:38;;;;;;;;;;;;;;;18.27;64.08;99673.06;7395025;19;1385;-40
2024/02/12 00:09:06;;;;;;;;;;;;;;;18.32;64.18;99664.56;7394570;19;1536;-40
2024/02/12 00:11:35;;;;;;;;;;;;;;;18.32;63.96;99669.91;7394763;19;1901;-40
2024/02/12 00:14:06;;;;;;;;;;;;;;;18.32;63.90;99680.63;7390979;19;1863;-36
2024/02/12 00:16:37;;;;;;;;;;;;;;;18.32;63.74;99673.41;7392247;19;1595;-36
2024/02/12 00:19:06;;;;;;;;;;;;;;;18.35;63.86;99681.13;7393009;19;1477;-36
2024/02/12 00:21:34;;;;;;;;;;;;;;;18.29;64.00;99661.19;7392689;19;1330;-35
2024/02/12 00:24:02;;;;;;;;;;;;;;;18.30;63.94;99675.41;7394245;19;1457;-34
2024/02/12 00:26:33;;;;;;;;;;;;;;;18.29;64.08;99681.78;7394049;19;1540;-36
2024/02/12 00:29:03;;;;;;;;;;;;;;;18.33;64.07;99677.78;7394376;19;1565;-34
2024/02/12 00:31:33;;;;;;;;;;;;;;;18.12;64.11;99658.56;7394068;19;1830;-42
2024/02/12 00:34:02;;;;;;;;;;;;;;;18.35;63.88;99689.16;7392538;19;1858;-42
2024/02/12 00:36:31;;;;;;;;;;;;;;;18.36;63.85;99687.31;7390646;19;1797;-44
2024/02/12 00:38:59;;;;;;;;;;;;;;;18.33;63.97;99690.34;7378361;19;1675;-41
2024/02/12 00:41:28;;;;;;;;;;;;;;;18.29;63.99;99679.94;7393374;19;1235;-39
2024/02/12 00:43:56;;;;;;;;;;;;;;;18.31;64.21;99682.47;7392514;19;1902;-39
2024/02/12 00:46:24;;;;;;;;;;;;;;;18.29;64.15;99677.25;7392157;19;1427;-41
2024/02/12 00:48:56;;;;;;;;;;;;;;;18.32;64.06;99685.97;7389441;19;1462;-40
2024/02/12 00:51:24;;;;;;;;;;;;;;;18.32;64.06;99678.75;7391015;19;1212;-40
2024/02/12 00:53:55;;;;;;;;;;;;;;;18.34;63.83;99684.81;7389478;19;1857;-40
2024/02/12 00:56:24;;;;;;;;;;;;;;;18.37;63.96;99667.59;7391095;19;1789;-40
2024/02/12 00:58:52;;;;;;;;;;;;;;;18.39;63.91;99660.25;7392231;19;1922;-34
2024/02/12 01:01:20;;;;;;;;;;;;;;;18.27;63.98;99651.66;7390402;19;1579;-34
2024/02/12 01:03:50;;;;;;;;;;;;;;;18.28;64.25;99648.84;7390784;19;1481;-35
2024/02/12 01:06:21;;;;;;;;;;;;;;;18.25;64.34;99648.28;7391550;19;1581;-33
2024/02/12 01:08:49;;;;;;;;;;;;;;;18.29;64.13;99655.84;7392713;19;1442;-32
2024/02/12 01:11:18;;;;;;;;;;;;;;;18.35;64.08;99648.19;7392841;19;1445;-33
2024/02/12 01:13:46;;;;;;;;;;;;;;;18.31;64.31;99647.66;7390799;19;1894;-33
2024/02/12 01:16:18;;;;;;;;;;;;;;;18.31;64.23;99636.97;7390586;19;1473;-33
2024/02/12 01:18:46;;;;;;;;;;;;;;;18.27;64.07;99635.59;7393214;19;1231;-33
2024/02/12 01:21:17;;;;;;;;;;;;;;;18.27;63.87;99620.38;7391176;19;1588;-34
2024/02/12 01:23:48;;;;;;;;;;;;;;;18.32;64.20;99622.56;7390537;19;1493;-32
2024/02/12 01:26:16;;;;;;;;;;;;;;;18.32;64.20;99629.75;7390933;19;1553;-35
2024/02/12 01:28:45;;;;;;;;;;;;;;;18.33;64.15;99628.78;7391386;19;1330;-33
2024/02/12 01:31:18;;;;;;;;;;;;;;;18.28;64.17;99616.72;7390831;19;1477;-35
2024/02/12 01:33:46;;;;;;;;;;;;;;;18.26;64.45;99618.72;7390016;19;1861;-33
2024/02/12 01:36:15;;;;;;;;;;;;;;;18.25;64.45;99603.63;7390237;19;1390;-35
2024/02/12 01:38:44;;;;;;;;;;;;;;;18.26;64.16;99591.94;7389509;19;1334;-35
2024/02/12 01:41:16;;;;;;;;;;;;;;;18.20;64.15;99578.34;7376531;19;1477;-33
2024/02/12 01:43:44;;;;;;;;;;;;;;;18.21;64.32;99601.44;7389164;19;1226;-35
2024/02/12 01:46:13;;;;;;;;;;;;;;;18.16;64.30;99601.91;7390191;19;1367;-35
2024/02/12 01:48:41;;;;;;;;;;;;;;;18.24;64.30;99603.78;7389482;19;1244;-35
2024/02/12 01:51:10;;;;;;;;;;;;;;;18.14;64.58;99598.53;7390809;19;1462;-35
2024/02/12 01:53:38;;;;;;;;;;;;;;;18.15;64.55;99600.25;7389856;19;1849;-34
2024/02/12 01:56:08;;;;;;;;;;;;;;;18.17;64.39;99576.00;7389008;19;1378;-36
2024/02/12 01:58:40;;;;;;;;;;;;;;;18.23;64.43;99586.91;7390160;19;1497;-34
2024/02/12 02:01:10;;;;;;;;;;;;;;;18.23;64.20;99570.84;7388719;19;1481;-34
2024/02/12 02:03:39;;;;;;;;;;;;;;;18.19;64.39;99577.53;7390936;19;1494;-35
2024/02/12 02:06:07;;;;;;;;;;;;;;;18.29;64.02;99578.22;7390171;19;1271;-35
2024/02/12 02:08:37;;;;;;;;;;;;;;;18.32;63.88;99568.22;7387594;19;2056;-35
2024/02/12 02:11:05;;;;;;;;;;;;;;;18.33;64.03;99572.56;7389260;19;1557;-35
2024/02/12 02:13:35;;;;;;;;;;;;;;;18.28;64.07;99552.50;7389836;19;1863;-35
2024/02/12 02:16:06;;;;;;;;;;;;;;;18.29;64.09;99561.34;7390371;19;1637;-42
2024/02/12 02:18:36;;;;;;;;;;;;;;;18.35;63.89;99546.50;7389990;19;1830;-40
2024/02/12 02:21:04;;;;;;;;;;;;;;;18.32;63.85;99557.50;7388723;19;1486;-32
2024/02/12 02:23:33;;;;;;;;;;;;;;;18.28;63.82;99544.47;7389298;19;1906;-35
2024/02/12 02:26:04;;;;;;;;;;;;;;;18.15;64.42;99532.53;7388792;19;1457;-33
2024/02/12 02:28:32;;;;;;;;;;;;;;;18.15;64.58;99541.38;7389106;19;1472;-32
2024/02/12 02:31:01;;;;;;;;;;;;;;;18.13;64.44;99540.69;7387150;19;1553;-36
2024/02/12 02:33:29;;;;;;;;;;;;;;;18.16;64.42;99547.56;7388942;19;1860;-34
2024/02/12 02:35:57;;;;;;;;;;;;;;;18.25;64.27;99544.78;7388023;19;1484;-35
2024/02/12 02:38:26;;;;;;;;;;;;;;;18.35;63.81;99557.19;7386457;19;1658;-35
2024/02/12 02:40:54;;;;;;;;;;;;;;;18.34;64.02;99528.75;7375586;19;1216;-35
2024/02/12 02:43:26;;;;;;;;;;;;;;;18.25;63.96;99525.19;7388734;19;1754;-36
2024/02/12 02:45:54;;;;;;;;;;;;;;;18.32;63.77;99525.38;7387795;19;1608;-34
2024/02/12 02:48:23;;;;;;;;;;;;;;;18.32;63.81;99530.75;7389011;19;1295;-34
2024/02/12 02:50:52;;;;;;;;;;;;;;;18.23;64.16;99545.94;7388369;19;1619;-36
2024/02/12 02:53:21;;;;;;;;;;;;;;;18.26;63.92;99537.56;7387696;19;1212;-35
2024/02/12 02:55:50;;;;;;;;;;;;;;;18.33;63.86;99530.59;7386455;19;1887;-35
2024/02/12 02:58:20;;;;;;;;;;;;;;;18.38;63.75;99536.31;7387549;19;1584;-41
2024/02/12 03:00:53;;;;;;;;;;;;;;;18.37;63.65;99523.06;7387856;19;1661;-32
2024/02/12 03:03:22;;;;;;;;;;;;;;;18.34;63.77;99529.56;7385151;19;2488;-32
2024/02/12 03:05:50;;;;;;;;;;;;;;;18.31;63.78;99529.09;7387957;19;1526;-35
2024/02/12 03:08:19;;;;;;;;;;;;;;;18.20;64.19;99530.19;7387049;19;1605;-32
2024/02/12 03:10:47;;;;;;;;;;;;;;;18.15;64.33;99525.31;7388888;19;1421;-35
2024/02/12 03:13:15;;;;;;;;;;;;;;;18.21;64.35;99519.31;7388868;19;1466;-42
2024/02/12 03:15:44;;;;;;;;;;;;;;;18.25;64.03;99527.88;7385455;19;1857;-36
2024/02/12 03:18:20;;;;;;;;;;;;;;;18.25;64.27;99522.53;7387889;19;1608;-35
2024/02/12 03:20:49;;;;;;;;;;;;;;;18.28;64.03;99507.00;7386570;19;1517;-34
2024/02/12 03:23:17;;;;;;;;;;;;;;;18.33;63.69;99513.69;7387369;19;1665;-33
2024/02/12 03:25:45;;;;;;;;;;;;;;;18.31;63.71;99505.00;7386774;19;1299;-32
2024/02/12 03:28:15;;;;;;;;;;;;;;;18.37;63.77;99505.16;7387049;19;1504;-39
2024/02/12 03:30:44;;;;;;;;;;;;;;;18.32;63.63;99494.09;7387457;19;1576;-33
2024/02/12 03:33:15;;;;;;;;;;;;;;;18.23;63.85;99492.41;7386472;19;1424;-34
2024/02/12 03:35:43;;;;;;;;;;;;;;;18.27;64.02;99505.31;7384662;19;1868;-34
2024/02/12 03:38:12;;;;;;;;;;;;;;;18.34;64.00;99488.59;7386688;19;1489;-33
2024/02/12 03:40:40;;;;;;;;;;;;;;;18.32;63.89;99487.91;7373858;19;1486;-32
2024/02/12 03:43:10;;;;;;;;;;;;;;;18.27;63.92;99485.75;7385161;19;1847;-33
2024/02/12 03:45:44;;;;;;;;;;;;;;;18.35;63.88;99479.59;7385427;19;1458;-32
2024/02/12 03:59:50;;;;;;;;;;;;;;;18.10;64.26;99479.47;7387720;19;1447;-40
2024/02/12 04:01:50;;;;;;;;;;;;;;;18.03;64.61;99486.47;7394102;19;1536;-35
2024/02/12 04:04:21;;;;;;;;;;;;;;;18.24;64.25;99486.91;7394605;19;1543;-32
2024/02/12 04:06:49;;;;;;;;;;;;;;;18.86;62.58;99470.50;7394008;19;1577;-33
2024/02/12 04:09:18;;;;;;;;;;;;;;;19.25;61.62;99469.00;7392484;19;1484;-35
2024/02/12 04:11:47;;;;;;;;;;;;;;;19.22;61.69;99474.72;7393157;19;1382;-34
2024/02/12 04:14:15;;;;;;;;;;;;;;;18.90;62.38;99465.66;7393247;19;1845;-34
2024/02/12 04:16:44;;;;;;;;;;;;;;;18.77;62.91;99473.31;7394253;19;1488;-34
2024/02/12 04:19:12;;;;;;;;;;;;;;;18.52;63.42;99467.91;7393108;19;1573;-34
2024/02/12 04:21:43;;;;;;;;;;;;;;;18.54;63.77;99473.91;7394506;19;1492;-35
2024/02/12 04:24:12;;;;;;;;;;;;;;;18.64;63.18;99463.94;7394750;19;1310;-34
2024/02/12 04:26:40;;;;;;;;;;;;;;;18.91;62.86;99458.47;7395262;19;1401;-34
2024/02/12 04:29:09;;;;;;;;;;;;;;;18.86;62.76;99464.28;7393701;19;1841;-33
2024/02/12 04:31:38;;;;;;;;;;;;;;;18.74;63.22;99473.63;7394111;19;1600;-33
2024/02/12 04:34:07;;;;;;;;;;;;;;;18.69;63.13;99474.13;7392898;19;1845;-35
2024/02/12 04:36:40;;;;;;;;;;;;;;;18.52;63.54;99475.94;7391852;19;1648;-33
2024/02/12 04:39:11;;;;;;;;;;;;;;;18.59;63.69;99457.38;7392523;19;1395;-35
2024/02/12 04:41:40;;;;;;;;;;;;;;;18.81;63.27;99461.28;7378917;19;1278;-37
2024/02/12 04:44:09;;;;;;;;;;;;;;;18.98;62.60;99454.94;7391034;19;1511;-34
2024/02/12 04:46:37;;;;;;;;;;;;;;;18.81;63.11;99455.94;7393036;19;1564;-34
2024/02/12 04:49:19;;;;;;;;;;;;;;;18.76;62.95;99452.88;7392157;19;1430;-35
2024/02/12 04:51:48;;;;;;;;;;;;;;;18.61;63.37;99447.34;7389351;19;1609;-35
2024/02/12 04:54:19;;;;;;;;;;;;;;;18.47;63.86;99454.19;7391725;19;1869;-35
2024/02/12 04:56:49;;;;;;;;;;;;;;;18.63;63.40;99443.50;7391522;19;1457;-35
2024/02/12 04:59:18;;;;;;;;;;;;;;;18.86;63.00;99466.97;7391870;19;1469;-40
2024/02/12 05:01:46;;;;;;;;;;;;;;;18.84;62.85;99453.78;7390455;19;1544;-42
2024/02/12 05:04:15;;;;;;;;;;;;;;;18.81;63.11;99455.94;7391186;19;1477;-35
2024/02/12 05:06:43;;;;;;;;;;;;;;;18.79;63.12;99455.22;7391508;19;1409;-35
2024/02/12 05:09:12;;;;;;;;;;;;;;;18.60;63.40;99469.75;7390520;19;1529;-35
2024/02/12 05:11:43;;;;;;;;;;;;;;;18.52;63.86;99469.75;7389026;19;1311;-35
2024/02/12 05:14:11;;;;;;;;;;;;;;;18.66;63.52;99453.88;7392281;19;1345;-33
2024/02/12 05:16:45;;;;;;;;;;;;;;;18.85;63.13;99478.72;7390761;19;1331;-35
2024/02/12 05:24:35;;;;;;;;;;;;;;;18.71;63.50;99473.97;7390929;19;1172;-35
2024/02/12 05:27:06;;;;;;;;;;;;;;;18.61;63.50;99458.88;7391802;19;1295;-34
2024/02/12 05:29:37;;;;;;;;;;;;;;;18.61;63.74;99461.56;7392529;19;1398;-35
2024/02/12 05:32:06;;;;;;;;;;;;;;;18.76;63.55;99463.59;7392546;19;1278;-34
2024/02/12 05:34:35;;;;;;;;;;;;;;;18.89;63.67;99488.09;7388923;19;1857;-34
2024/02/12 05:37:03;;;;;;;;;;;;;;;18.97;63.53;99481.91;7390605;19;1490;-35
2024/02/12 05:39:33;;;;;;;;;;;;;;;18.82;63.85;99474.53;7391542;19;1205;-34
2024/02/12 05:42:02;;;;;;;;;;;;;;;18.64;64.40;99484.50;7374982;19;2452;-34
2024/02/12 05:44:35;;;;;;;;;;;;;;;18.49;63.49;99454.84;7389092;19;1846;-33
2024/02/12 05:47:05;;;;;;;;;;;;;;;18.41;64.41;99463.69;7391363;19;1394;-33
2024/02/12 05:49:34;;;;;;;;;;;;;;;18.77;63.17;99465.28;7384947;19;1967;-35
2024/02/12 05:52:03;;;;;;;;;;;;;;;19.12;62.19;99461.47;7387491;19;1802;-33
2024/02/12 05:54:32;;;;;;;;;;;;;;;19.03;62.10;99449.91;7387116;19;1828;-34
2024/02/12 05:57:02;;;;;;;;;;;;;;;18.91;62.31;99443.22;7386934;19;1849;-32
2024/02/12 05:59:33;;;;;;;;;;;;;;;18.84;62.66;99450.22;7387890;19;1430;-35
2024/02/12 06:02:02;;;;;;;;;;;;;;;18.64;62.98;99461.25;7386014;19;1021;-35
2024/02/12 06:04:31;;;;;;;;;;;;;;;18.76;62.82;99452.88;7385651;19;1939;-33
2024/02/12 06:06:59;;;;;;;;;;;;;;;19.14;61.83;99466.66;7384585;19;1435;-35
2024/02/12 06:09:28;;;;;;;;;;;;;;;19.27;61.50;99473.16;7386032;19;1476;-35
2024/02/12 06:11:56;;;;;;;;;;;;;;;18.84;60.61;99477.88;7387212;19;1094;-32
2024/02/12 06:14:24;;;;;;;;;;;;;;;18.62;62.03;99479.31;7385629;19;1580;-32
2024/02/12 06:16:55;;;;;;;;;;;;;;;18.57;61.85;99459.38;7387236;19;1857;-35
2024/02/12 06:19:24;;;;;;;;;;;;;;;18.53;62.12;99468.75;7389634;19;1550;-35
2024/02/12 06:21:52;;;;;;;;;;;;;;;18.69;61.86;99469.59;7388337;19;1740;-35
2024/02/12 06:24:21;;;;;;;;;;;;;;;18.84;61.38;99461.81;7375007;19;1148;-32
2024/02/12 06:26:49;;;;;;;;;;;;;;;18.77;61.72;99458.06;7385745;19;1339;-34
2024/02/12 06:29:18;;;;;;;;;;;;;;;18.69;61.88;99469.59;7386558;19;1829;-35
2024/02/12 06:31:46;;;;;;;;;;;;;;;18.75;61.91;99459.25;7384639;19;1442;-36
2024/02/12 06:34:17;;;;;;;;;;;;;;;18.78;61.76;99466.94;7383422;19;1502;-47
2024/02/12 06:36:46;;;;;;;;;;;;;;;18.71;61.79;99460.59;7384307;19;1859;-35
2024/02/12 06:39:14;;;;;;;;;;;;;;;18.63;62.12;99454.19;7385365;19;1012;-35
2024/02/12 06:41:44;;;;;;;;;;;;;;;18.80;61.91;99448.88;7369278;19;2461;-35
2024/02/12 06:44:13;;;;;;;;;;;;;;;18.93;61.63;99465.31;7384741;19;1551;-34
2024/02/12 06:46:44;;;;;;;;;;;;;;;18.96;61.39;99454.28;7385643;19;1653;-33
2024/02/12 06:49:13;;;;;;;;;;;;;;;18.99;61.36;99470.00;7386209;19;1350;-33
2024/02/12 06:51:44;;;;;;;;;;;;;;;18.93;61.54;99451.09;7385050;19;1593;-33
2024/02/12 06:54:12;;;;;;;;;;;;;;;18.85;61.80;99446.56;7381007;19;1426;-34
2024/02/12 06:56:44;;;;;;;;;;;;;;;18.74;62.00;99449.53;7382501;19;1849;-35
2024/02/12 06:59:13;;;;;;;;;;;;;;;18.79;62.36;99452.56;7385519;19;1558;-34
2024/02/12 07:01:42;;;;;;;;;;;;;;;19.00;61.71;99436.00;7383713;19;1613;-35
2024/02/12 07:04:10;;;;;;;;;;;;;;;19.11;61.21;99441.03;7385353;19;1382;-37
2024/02/12 07:06:39;;;;;;;;;;;;;;;19.03;61.55;99439.19;7383755;19;1582;-43
2024/02/12 07:09:10;;;;;;;;;;;;;;;18.96;61.86;99462.31;7385062;19;1775;-41
2024/02/12 07:11:39;;;;;;;;;;;;;;;18.85;61.93;99442.03;7386449;19;1115;-40
2024/02/12 07:14:07;;;;;;;;;;;;;;;18.77;62.29;99443.84;7382358;19;1500;-42
2024/02/12 07:16:35;;;;;;;;;;;;;;;18.70;62.51;99432.94;7383844;19;1889;-40
2024/02/12 07:19:04;;;;;;;;;;;;;;;18.79;62.25;99428.44;7385157;19;1476;-35
2024/02/12 07:21:32;;;;;;;;;;;;;;;19.02;61.72;99426.81;7382127;19;1133;-35
2024/02/12 07:24:01;;;;;;;;;;;;;;;19.25;61.22;99444.88;7384145;19;1496;-40
2024/02/12 07:26:32;;;;;;;;;;;;;;;19.33;60.93;99434.13;7389871;19;1534;-40
2024/02/12 07:29:00;;;;;;;;;;;;;;;19.43;60.63;99439.31;7391878;19;1459;-40
2024/02/12 07:31:28;;;;;;;;;;;;;;;19.47;60.58;99457.56;7387686;19;1865;-35
2024/02/12 07:33:57;;;;;;;;;;;;;;;19.33;60.38;99419.91;7391834;19;1090;-35
2024/02/12 07:36:25;;;;;;;;;;;;;;;19.31;60.72;99438.84;7388313;19;1873;-35
2024/02/12 07:38:54;;;;;;;;;;;;;;;19.11;61.53;99429.47;7391187;19;1886;-35
2024/02/12 07:41:23;;;;;;;;;;;;;;;19.04;61.61;99432.84;7374297;19;2447;-35
2024/02/12 07:43:54;;;;;;;;;;;;;;;18.96;62.02;99440.88;7388688;19;1707;-35
2024/02/12 07:46:23;;;;;;;;;;;;;;;18.87;62.21;99433.84;7388780;19;1748;-40
2024/02/12 07:48:53;;;;;;;;;;;;;;;18.88;62.35;99457.78;7388320;19;1394;-41
2024/02/12 07:51:21;;;;;;;;;;;;;;;18.76;62.50;99448.38;7386725;19;1677;-40
2024/02/12 07:53:50;;;;;;;;;;;;;;;18.82;62.48;99446.88;7384985;19;1335;-40
2024/02/12 07:56:18;;;;;;;;;;;;;;;18.92;61.88;99452.94;7387027;19;1851;-40
2024/02/12 07:58:47;;;;;;;;;;;;;;;18.62;59.75;99449.00;7386129;19;2395;-41
2024/02/12 08:01:19;;;;;;;;;;;;;;;18.55;60.02;99445.34;7390073;19;1394;-40
2024/02/12 08:03:48;;;;;;;;;;;;;;;18.60;61.91;99422.41;7390592;19;1169;-42
2024/02/12 08:06:17;;;;;;;;;;;;;;;18.50;60.27;99416.34;7389710;19;1514;-40
2024/02/12 08:08:47;;;;;;;;;;;;;;;18.54;61.42;99435.63;7390605;19;995;-42
2024/02/12 08:11:16;;;;;;;;;;;;;;;18.47;61.61;99432.75;7391382;19;1909;-42
2024/02/12 08:13:45;;;;;;;;;;;;;;;18.50;61.21;99432.41;7389001;19;1584;-36
2024/02/12 08:16:14;;;;;;;;;;;;;;;18.40;61.21;99434.41;7391541;19;1851;-34
2024/02/12 08:18:46;;;;;;;;;;;;;;;18.39;61.24;99440.78;7391337;19;1632;-34
2024/02/12 08:21:14;;;;;;;;;;;;;;;18.40;61.24;99423.72;7381587;19;1410;-39
2024/02/12 08:23:43;;;;;;;;;;;;;;;18.44;61.07;99409.84;7390407;19;1913;-33
2024/02/12 08:26:11;;;;;;;;;;;;;;;18.42;61.22;99409.19;7390407;19;1526;-35
2024/02/12 08:28:42;;;;;;;;;;;;;;;18.46;61.46;99406.97;7388796;19;1561;-35
2024/02/12 08:31:11;;;;;;;;;;;;;;;18.49;61.03;99393.28;7389990;19;1339;-35
2024/02/12 08:33:39;;;;;;;;;;;;;;;18.47;61.60;99397.97;7387395;19;1494;-33
2024/02/12 08:36:11;;;;;;;;;;;;;;;18.32;61.09;99386.22;7386668;19;2335;-40
2024/02/12 08:38:39;;;;;;;;;;;;;;;18.13;59.34;99384.69;7391884;19;1867;-34
2024/02/12 08:41:07;;;;;;;;;;;;;;;18.01;59.03;99368.94;7375740;19;1945;-34
2024/02/12 08:43:36;;;;;;;;;;;;;;;18.05;57.80;99383.66;7391190;19;1484;-35
2024/02/12 08:46:04;;;;;;;;;;;;;;;18.01;58.38;99366.28;7392241;19;1534;-34
2024/02/12 08:48:33;;;;;;;;;;;;;;;18.15;56.99;99364.78;7391460;19;1518;-33
2024/02/12 08:51:01;;;;;;;;;;;;;;;18.15;56.99;99364.78;7389942;19;1545;-34
2024/02/12 08:53:33;;;;;;;;;;;;;;;18.12;58.11;99373.13;7389933;19;1508;-33
2024/02/12 08:56:04;;;;;;;;;;;;;;;18.10;58.07;99356.41;7389146;19;1851;-33
2024/02/12 08:58:33;;;;;;;;;;;;;;;17.93;57.97;99358.22;7390105;19;1641;-34
2024/02/12 09:01:01;;;;;;;;;;;;;;;17.89;54.75;99349.69;7387574;19;1807;-33
2024/02/12 09:03:30;;;;;;;;;;;;;;;17.89;54.62;99355.03;7388640;19;1475;-33
2024/02/12 09:05:58;;;;;;;;;;;;;;;17.97;55.86;99372.94;7389646;19;1450;-33
2024/02/12 09:08:26;;;;;;;;;;;;;;;18.38;55.89;99348.09;7388764;19;1573;-34
2024/02/12 09:10:58;;;;;;;;;;;;;;;18.67;54.87;99364.50;7388791;19;1703;-33
2024/02/12 09:13:26;;;;;;;;;;;;;;;18.48;55.30;99356.78;7389623;19;1586;-34
2024/02/12 09:15:54;;;;;;;;;;;;;;;18.42;55.72;99376.19;7388878;19;1837;-39
2024/02/12 09:18:23;;;;;;;;;;;;;;;18.44;56.02;99374.19;7386798;19;1839;-33
2024/02/12 09:20:51;;;;;;;;;;;;;;;18.55;56.34;99368.53;7387083;19;1561;-35
2024/02/12 09:23:21;;;;;;;;;;;;;;;18.58;56.08;99341.44;7388982;19;1764;-39
2024/02/12 09:25:49;;;;;;;;;;;;;;;18.60;56.53;99358.16;7389311;19;1739;-40
2024/02/12 09:28:20;;;;;;;;;;;;;;;18.46;57.11;99356.13;7387290;19;1737;-40
2024/02/12 09:30:50;;;;;;;;;;;;;;;18.56;56.84;99364.84;7385688;19;1809;-39
2024/02/12 09:33:18;;;;;;;;;;;;;;;18.49;57.34;99358.47;7384396;19;1506;-40
2024/02/12 09:35:47;;;;;;;;;;;;;;;18.67;56.91;99353.78;7384470;19;1971;-42
2024/02/12 09:38:16;;;;;;;;;;;;;;;18.66;56.75;99346.78;7385560;19;1624;-42
2024/02/12 09:40:44;;;;;;;;;;;;;;;18.46;57.35;99348.97;7385636;19;1453;-40
2024/02/12 09:43:15;;;;;;;;;;;;;;;18.56;57.47;99337.22;7372190;19;1503;-40
2024/02/12 09:45:47;;;;;;;;;;;;;;;18.53;57.67;99350.97;7390010;19;1328;-40
2024/02/12 09:48:16;;;;;;;;;;;;;;;18.62;57.60;99324.03;7389621;19;1142;-40
2024/02/12 09:50:45;;;;;;;;;;;;;;;18.85;57.19;99334.06;7390441;19;954;-40
2024/02/12 09:53:15;;;;;;;;;;;;;;;18.58;57.73;99329.88;7389054;19;1589;-40
2024/02/12 09:55:45;;;;;;;;;;;;;;;18.57;58.04;99336.25;7389040;19;1494;-40
2024/02/12 09:58:15;;;;;;;;;;;;;;;18.59;57.73;99324.34;7388937;19;1830;-40
2024/02/12 10:00:46;;;;;;;;;;;;;;;18.50;58.08;99317.31;7388098;19;1557;-39
2024/02/12 10:03:15;;;;;;;;;;;;;;;18.82;57.63;99300.44;7388760;19;1336;-42
2024/02/12 10:05:44;;;;;;;;;;;;;;;18.72;57.75;99307.78;7389309;19;1817;-35
2024/02/12 10:08:19;;;;;;;;;;;;;;;18.58;58.21;99317.34;7388693;19;1383;-35
2024/02/12 10:10:48;;;;;;;;;;;;;;;18.63;58.09;99311.47;7389122;19;1537;-36
2024/02/12 10:13:17;;;;;;;;;;;;;;;18.54;58.19;99326.69;7388580;19;1020;-36
2024/02/12 10:15:49;;;;;;;;;;;;;;;18.63;58.23;99319.50;7389170;19;1897;-40
2024/02/12 10:18:19;;;;;;;;;;;;;;;18.89;57.60;99311.28;7386931;19;1866;-35
2024/02/12 10:20:48;;;;;;;;;;;;;;;18.68;57.99;99303.75;7389067;19;1796;-35
2024/02/12 10:23:19;;;;;;;;;;;;;;;18.49;58.55;99291.56;7388357;19;1802;-36
2024/02/12 10:25:48;;;;;;;;;;;;;;;18.57;58.43;99307.63;7387797;19;1205;-34
2024/02/12 10:28:21;;;;;;;;;;;;;;;18.56;58.62;99308.63;7386604;19;1669;-35
2024/02/12 10:30:52;;;;;;;;;;;;;;;18.71;58.26;99307.94;7388953;19;1657;-35
2024/02/12 10:33:21;;;;;;;;;;;;;;;18.85;57.97;99302.75;7388301;19;1470;-36
2024/02/12 10:35:50;;;;;;;;;;;;;;;18.59;58.32;99329.69;7388911;19;1112;-34
2024/02/12 10:38:18;;;;;;;;;;;;;;;18.57;58.76;99355.81;7385573;19;1874;-34
2024/02/12 10:40:53;;;;;;;;;;;;;;;18.63;58.27;99362.34;7388286;19;1489;-33
2024/02/12 10:43:26;;;;;;;;;;;;;;;18.55;58.65;99376.56;7370578;19;1737;-35
2024/02/12 10:45:58;;;;;;;;;;;;;;;18.83;58.19;99358.34;7387647;19;1165;-35
2024/02/12 10:48:27;;;;;;;;;;;;;;;18.88;57.92;99347.97;7388201;19;1724;-34
2024/02/12 10:50:57;;;;;;;;;;;;;;;18.65;58.44;99345.09;7387857;19;1474;-33
2024/02/12 10:53:26;;;;;;;;;;;;;;;18.63;58.67;99357.81;7388264;19;1735;-34
2024/02/12 10:55:54;;;;;;;;;;;;;;;18.58;58.65;99370.03;7388157;19;1072;-33
2024/02/12 10:58:23;;;;;;;;;;;;;;;18.62;58.86;99377.56;7386164;19;1990;-34
2024/02/12 11:01:00;;;;;;;;;;;;;;;18.85;58.23;99383.09;7391810;19;1498;-33
2024/02/12 11:03:33;;;;;;;;;;;;;;;19.12;57.74;99409.72;7395756;19;1560;-34
2024/02/12 11:06:02;;;;;;;;;;;;;;;18.78;58.22;99400.84;7393939;19;1402;-35
2024/02/12 11:08:31;;;;;;;;;;;;;;;18.68;58.90;99403.69;7395210;19;1506;-35
2024/02/12 11:11:00;;;;;;;;;;;;;;;18.69;58.64;99394.63;7395656;19;1739;-34
2024/02/12 11:13:35;;;;;;;;;;;;;;;18.55;58.99;99389.94;7395486;19;1248;-35
2024/02/12 11:16:08;;;;;;;;;;;;;;;18.68;58.74;99402.81;7395639;19;1001;-34
2024/02/12 11:18:37;;;;;;;;;;;;;;;18.85;58.41;99409.91;7392419;19;1870;-42
2024/02/12 11:21:08;;;;;;;;;;;;;;;18.72;58.58;99393.47;7393941;19;1521;-40
2024/02/12 11:23:40;;;;;;;;;;;;;;;18.61;59.01;99385.75;7393617;19;1526;-34
2024/02/12 11:26:09;;;;;;;;;;;;;;;18.61;59.08;99402.66;7394530;19;1431;-35
2024/02/12 11:28:39;;;;;;;;;;;;;;;18.53;59.14;99386.59;7394831;19;1469;-36
2024/02/12 11:31:15;;;;;;;;;;;;;;;18.72;58.82;99392.63;7393398;19;1707;-35
2024/02/12 11:33:44;;;;;;;;;;;;;;;18.90;58.64;99387.13;7393592;19;1239;-41
2024/02/12 11:36:13;;;;;;;;;;;;;;;18.78;58.84;99389.28;7394148;19;1752;-40
2024/02/12 11:38:51;;;;;;;;;;;;;;;18.60;59.01;99387.63;7390086;19;1881;-39
2024/02/12 11:41:19;;;;;;;;;;;;;;;18.65;58.97;99387.09;7393647;19;1027;-33
2024/02/12 11:43:49;;;;;;;;;;;;;;;18.52;59.40;99392.09;7378444;19;1776;-35
2024/02/12 11:46:20;;;;;;;;;;;;;;;18.63;59.06;99381.91;7390149;19;2146;-41
2024/02/12 11:48:49;;;;;;;;;;;;;;;18.91;58.59;99383.47;7393212;19;1744;-39
2024/02/12 11:51:22;;;;;;;;;;;;;;;18.77;58.83;99388.44;7391922;19;1390;-35
2024/02/12 11:53:51;;;;;;;;;;;;;;;18.65;59.17;99379.91;7391668;19;1133;-35
2024/02/12 11:56:21;;;;;;;;;;;;;;;18.74;59.03;99383.44;7393478;19;1335;-40
2024/02/12 11:58:52;;;;;;;;;;;;;;;18.61;59.31;99386.59;7391016;19;1842;-39
2024/02/12 12:01:23;;;;;;;;;;;;;;;18.71;59.32;99385.59;7391833;19;1395;-40
2024/02/12 12:03:52;;;;;;;;;;;;;;;18.99;58.59;99381.59;7392535;19;1205;-39
2024/02/12 12:06:22;;;;;;;;;;;;;;;18.92;58.68;99401.19;7392388;19;1300;-40
2024/02/12 12:08:51;;;;;;;;;;;;;;;18.74;59.20;99385.25;7393990;19;1067;-40
2024/02/12 12:11:23;;;;;;;;;;;;;;;18.76;59.22;99377.88;7391507;19;1003;-35
2024/02/12 12:13:51;;;;;;;;;;;;;;;18.67;59.41;99402.00;7391747;19;1823;-34
2024/02/12 12:16:19;;;;;;;;;;;;;;;18.72;59.09;99414.03;7391560;19;1447;-35
2024/02/12 12:18:51;;;;;;;;;;;;;;;19.07;58.48;99403.00;7392431;19;1859;-35
2024/02/12 12:21:20;;;;;;;;;;;;;;;19.02;58.38;99415.25;7393273;19;1941;-34
2024/02/12 12:23:48;;;;;;;;;;;;;;;18.88;58.74;99420.28;7392734;19;1447;-42
2024/02/12 12:26:17;;;;;;;;;;;;;;;18.86;58.89;99427.66;7392749;19;1213;-34
2024/02/12 12:28:46;;;;;;;;;;;;;;;18.74;59.29;99428.09;7393556;19;1418;-35
2024/02/12 12:31:14;;;;;;;;;;;;;;;18.77;59.09;99438.50;7393405;19;1846;-36
2024/02/12 12:33:43;;;;;;;;;;;;;;;19.11;58.39;99440.19;7393143;19;1851;-35
2024/02/12 12:36:14;;;;;;;;;;;;;;;19.05;58.64;99439.84;7389518;19;1568;-46
2024/02/12 12:38:43;;;;;;;;;;;;;;;18.80;59.15;99438.19;7389858;19;1886;-36
2024/02/12 12:41:12;;;;;;;;;;;;;;;18.85;59.16;99444.72;7393388;19;1171;-35
2024/02/12 12:43:40;;;;;;;;;;;;;;;18.82;59.23;99457.59;7377749;19;1832;-43
2024/02/12 12:46:08;;;;;;;;;;;;;;;18.79;59.46;99457.91;7391910;19;1386;-44
2024/02/12 12:48:37;;;;;;;;;;;;;;;19.14;58.39;99469.31;7388831;19;1807;-40
2024/02/12 12:51:05;;;;;;;;;;;;;;;19.00;58.61;99474.38;7389856;19;1633;-36
2024/02/12 12:53:37;;;;;;;;;;;;;;;18.77;59.34;99470.63;7391517;19;1390;-35
2024/02/12 12:56:06;;;;;;;;;;;;;;;18.79;59.31;99484.69;7390920;19;1283;-36
2024/02/12 12:58:35;;;;;;;;;;;;;;;18.73;59.36;99471.97;7389371;19;1853;-36
2024/02/12 13:01:04;;;;;;;;;;;;;;;18.71;59.57;99492.72;7389653;19;1299;-35
2024/02/12 13:03:32;;;;;;;;;;;;;;;19.13;58.67;99503.34;7391949;19;1707;-36
2024/02/12 13:06:01;;;;;;;;;;;;;;;19.04;58.55;99497.16;7391572;19;1106;-37
2024/02/12 13:08:30;;;;;;;;;;;;;;;18.83;59.21;99515.53;7391032;19;1929;-36
2024/02/12 13:11:02;;;;;;;;;;;;;;;18.78;59.36;99499.94;7390675;19;1474;-35
2024/02/12 13:13:30;;;;;;;;;;;;;;;18.75;59.35;99502.09;7389767;19;1749;-36
2024/02/12 13:15:59;;;;;;;;;;;;;;;18.68;59.58;99505.44;7390780;19;1124;-36
2024/02/12 13:18:29;;;;;;;;;;;;;;;19.07;58.63;99499.47;7389696;19;1947;-45
2024/02/12 13:20:58;;;;;;;;;;;;;;;18.95;58.85;99491.94;7390490;19;1508;-40
2024/02/12 13:23:26;;;;;;;;;;;;;;;18.76;59.22;99490.38;7390073;19;1610;-35
2024/02/12 13:25:55;;;;;;;;;;;;;;;18.80;59.42;99521.19;7390177;19;1723;-35